Time;durP1;ratioP1;P1;durP2;ratioP2;P2;SDS_P1;SDS_P2;PMS_P1;PMS_P2;Temp;Humidity;BMP_temperature;BMP_pressure;BME280_temperature;BME280_humidity;BME280_pressure;Samples;Min_cycle;Max_cycle;Signal;HPM_P1;HPM_P2
2022/05/27 00:01:31;;;;;;;5.70;3.95;;;;;;;13.10;100.00;98066.00;6237940;23;20070;-61
2022/05/27 00:04:16;;;;;;;4.82;3.75;;;;;;;12.97;100.00;98059.59;6247046;23;20052;-62
2022/05/27 00:07:00;;;;;;;4.53;3.55;;;;;;;12.91;100.00;98067.94;6248227;23;20031;-70
2022/05/27 00:09:45;;;;;;;4.85;3.40;;;;;;;12.87;100.00;98069.94;6238126;23;20170;-62
2022/05/27 00:12:29;;;;;;;3.65;3.13;;;;;;;12.78;100.00;98074.91;6236062;23;20031;-63
2022/05/27 00:15:14;;;;;;;3.78;3.30;;;;;;;12.87;100.00;98069.06;6239960;23;20039;-60
2022/05/27 00:17:58;;;;;;;4.30;3.20;;;;;;;12.80;100.00;98068.56;6246287;23;20035;-62
2022/05/27 00:20:44;;;;;;;3.47;2.83;;;;;;;12.84;100.00;98071.88;6240838;23;20165;-60
2022/05/27 00:23:30;;;;;;;3.78;3.30;;;;;;;12.84;100.00;98070.09;6250855;23;20027;-60
2022/05/27 00:26:14;;;;;;;4.57;2.65;;;;;;;12.96;100.00;98081.84;6250864;23;20030;-60
2022/05/27 00:28:58;;;;;;;4.78;2.78;;;;;;;12.89;100.00;98083.13;6251044;23;20027;-60
2022/05/27 00:31:43;;;;;;;2.92;2.50;;;;;;;12.89;100.00;98078.69;6248437;23;20078;-62
2022/05/27 00:34:27;;;;;;;4.90;2.60;;;;;;;12.82;100.00;98082.63;6250736;23;20488;-60
2022/05/27 00:37:12;;;;;;;3.15;2.78;;;;;;;12.61;100.00;98051.91;6248328;23;20090;-61
2022/05/27 00:39:56;;;;;;;4.45;2.33;;;;;;;12.78;100.00;98074.91;6217905;23;20200;-61
2022/05/27 00:42:42;;;;;;;3.10;2.40;;;;;;;12.71;100.00;98076.19;6249206;23;20764;-60
2022/05/27 00:45:27;;;;;;;3.28;2.67;;;;;;;12.53;100.00;98045.28;6250630;23;20031;-60
2022/05/27 00:48:15;;;;;;;3.95;2.97;;;;;;;12.64;100.00;98083.66;6217775;23;20030;-61
2022/05/27 00:50:59;;;;;;;4.03;3.25;;;;;;;12.52;100.00;98086.09;6248222;23;20363;-61
2022/05/27 00:53:53;;;;;;;5.40;4.05;;;;;;;12.49;100.00;98076.50;6240518;23;20473;-61
2022/05/27 00:56:42;;;;;;;5.68;3.65;;;;;;;12.50;100.00;98088.84;6196565;23;20027;-62
2022/05/27 00:59:40;;;;;;;5.63;3.65;;;;;;;12.43;100.00;98091.94;6239420;23;20074;-70
2022/05/27 01:02:25;;;;;;;6.95;3.53;;;;;;;12.31;100.00;98081.97;6227663;23;20520;-61
2022/05/27 01:05:12;;;;;;;4.57;3.22;;;;;;;12.34;100.00;98087.13;6240599;23;20376;-60
2022/05/27 01:08:01;;;;;;;5.93;3.72;;;;;;;12.28;100.00;98088.31;6227658;23;20063;-61
2022/05/27 01:11:04;;;;;;;6.32;3.83;;;;;;;12.47;100.00;98094.31;6217670;23;20074;-62
2022/05/27 01:14:14;;;;;;;6.95;3.67;;;;;;;12.38;100.00;98092.16;6239715;23;20528;-63
2022/05/27 01:17:08;;;;;;;5.40;4.13;;;;;;;12.18;100.00;98070.28;6196287;23;20366;-61
2022/05/27 01:20:29;;;;;;;6.55;4.63;;;;;;;12.41;100.00;98105.31;6193885;23;20074;-62
2022/05/27 01:23:39;;;;;;;6.35;5.15;;;;;;;12.41;100.00;98096.44;6216289;23;20078;-61
2022/05/27 01:26:45;;;;;;;7.45;5.70;;;;;;;12.38;100.00;98107.28;6247989;23;20027;-60
2022/05/27 01:30:14;;;;;;;7.88;6.55;;;;;;;12.43;100.00;98106.06;6237919;23;20492;-62
2022/05/27 01:33:07;;;;;;;8.77;6.47;;;;;;;12.14;100.00;98080.19;6106872;23;20028;-62
2022/05/27 01:35:58;;;;;;;10.52;6.30;;;;;;;12.24;100.00;98107.13;6115556;23;20503;-72
2022/05/27 01:38:43;;;;;;;8.82;6.32;;;;;;;12.21;100.00;98107.28;6097398;23;20517;-61
2022/05/27 01:42:13;;;;;;;7.75;5.88;;;;;;;12.23;100.00;98100.94;6126577;23;20057;-61
2022/05/27 01:44:59;;;;;;;8.30;6.30;;;;;;;12.06;100.00;98105.44;6048186;23;20382;-62
2022/05/27 01:47:49;;;;;;;8.05;6.55;;;;;;;12.09;100.00;98124.75;6045542;23;20366;-62
2022/05/27 01:50:40;;;;;;;9.05;6.78;;;;;;;12.13;100.00;98117.47;6049129;23;20065;-60
2022/05/27 01:53:32;;;;;;;11.60;7.20;;;;;;;12.05;100.00;98128.50;6059853;23;20029;-62
2022/05/27 01:56:26;;;;;;;7.43;6.53;;;;;;;12.12;100.00;98126.38;6066688;23;20066;-61
2022/05/27 01:59:49;;;;;;;9.07;6.20;;;;;;;12.16;100.00;98125.28;6046174;23;20490;-63
2022/05/27 02:02:37;;;;;;;10.30;5.60;;;;;;;11.93;100.00;98099.06;6036297;23;20099;-69
2022/05/27 02:05:31;;;;;;;6.90;4.97;;;;;;;12.09;100.00;98132.72;6037762;23;20030;-63
2022/05/27 02:08:27;;;;;;;5.88;4.90;;;;;;;12.09;100.00;98131.84;6060302;23;20034;-64
2022/05/27 02:11:16;;;;;;;6.20;3.95;;;;;;;12.04;100.00;98131.22;6062791;23;20033;-61
2022/05/27 02:14:25;;;;;;;5.45;4.28;;;;;;;12.09;100.00;98124.75;6075176;23;20033;-63
2022/05/27 02:17:18;;;;;;;5.28;3.70;;;;;;;12.16;100.00;98130.59;6097009;23;20033;-62
2022/05/27 02:20:09;;;;;;;5.25;3.60;;;;;;;12.06;100.00;98129.34;6117647;23;20056;-61
2022/05/27 02:23:00;;;;;;;3.65;3.13;;;;;;;11.95;100.00;98113.97;6145564;23;20124;-64
2022/05/27 02:25:46;;;;;;;2.88;1.88;;;;;;;11.98;100.00;98135.06;6157510;23;20029;-63
2022/05/27 02:28:38;;;;;;;3.70;2.30;;;;;;;11.96;100.00;98133.44;6158272;23;20044;-61
2022/05/27 02:31:28;;;;;;;5.00;1.60;;;;;;;11.88;100.00;98117.91;6157972;23;20471;-70
2022/05/27 02:37:22;;;;;;;2.83;1.50;;;;;;;11.98;100.00;98144.81;6158805;23;20031;-63
2022/05/27 02:40:12;;;;;;;2.45;1.80;;;;;;;11.97;100.00;98145.75;6204222;23;20028;-61
2022/05/27 02:43:14;;;;;;;2.63;1.60;;;;;;;12.05;100.00;98133.81;6221341;23;20024;-62
2022/05/27 02:47:06;;;;;;;2.28;1.50;;;;;;;12.02;100.00;98139.28;6198252;23;20107;-62
2022/05/27 02:49:54;;;;;;;2.20;1.33;;;;;;;11.91;100.00;98138.13;6055387;23;20041;-61
2022/05/27 02:52:41;;;;;;;1.70;1.20;;;;;;;11.95;100.00;98137.88;6071314;23;20391;-61
2022/05/27 02:55:45;;;;;;;2.35;1.40;;;;;;;12.11;100.00;98138.78;6062354;23;20122;-62
2022/05/27 02:58:30;;;;;;;2.05;1.20;;;;;;;12.07;100.00;98144.38;6099410;23;20544;-61
2022/05/27 03:01:16;;;;;;;1.98;1.15;;;;;;;11.91;100.00;98130.16;6089175;23;20034;-64
2022/05/27 03:04:00;;;;;;;2.22;1.30;;;;;;;12.02;100.00;98149.03;6076108;23;20446;-61
2022/05/27 03:07:27;;;;;;;2.88;1.25;;;;;;;12.02;100.00;98154.34;6084331;23;20048;-63
2022/05/27 03:10:23;;;;;;;3.20;1.00;;;;;;;12.02;100.00;98151.69;6095537;23;20413;-64
2022/05/27 03:13:26;;;;;;;1.35;1.10;;;;;;;11.98;100.00;98150.13;6094466;23;20504;-63
2022/05/27 03:16:28;;;;;;;1.08;0.90;;;;;;;11.94;100.00;98162.72;6086614;23;20076;-63
2022/05/27 03:19:50;;;;;;;1.63;1.20;;;;;;;12.03;100.00;98161.41;6118147;23;20447;-62
2022/05/27 03:22:52;;;;;;;2.63;1.40;;;;;;;12.01;100.00;98172.09;6210836;23;20086;-62
2022/05/27 03:25:37;;;;;;;2.15;1.40;;;;;;;12.05;100.00;98160.38;6219300;23;20094;-61
2022/05/27 03:28:36;;;;;;;2.88;1.40;;;;;;;12.11;100.00;98175.16;6219660;23;20100;-63
2022/05/27 03:31:25;;;;;;;2.70;1.50;;;;;;;12.13;100.00;98175.91;6207207;23;20027;-70
2022/05/27 03:34:24;;;;;;;2.17;1.55;;;;;;;12.02;100.00;98143.72;6220706;23;20027;-62
2022/05/27 03:37:15;;;;;;;2.85;1.77;;;;;;;12.24;100.00;98181.53;6220428;23;20593;-62
2022/05/27 03:40:00;;;;;;;3.33;1.70;;;;;;;12.29;100.00;98174.19;6207037;23;20031;-61
2022/05/27 03:42:44;;;;;;;2.13;1.63;;;;;;;12.17;100.00;98138.50;6210808;23;20036;-61
2022/05/27 03:45:28;;;;;;;4.07;1.90;;;;;;;12.28;100.00;98167.16;6209739;23;20763;-62
2022/05/27 03:48:13;;;;;;;3.30;2.17;;;;;;;12.04;100.00;98129.44;6220570;23;20055;-61
2022/05/27 03:51:03;;;;;;;2.60;2.03;;;;;;;12.10;100.00;98128.25;6210049;23;20051;-61
2022/05/27 03:54:03;;;;;;;2.80;1.85;;;;;;;12.09;100.00;98139.81;6217878;23;20035;-67
2022/05/27 03:56:48;;;;;;;3.00;1.90;;;;;;;12.27;100.00;98174.25;6248649;23;20031;-62
2022/05/27 03:59:33;;;;;;;3.85;2.00;;;;;;;12.31;100.00;98177.63;6228059;23;20026;-62
2022/05/27 04:02:17;;;;;;;2.90;2.10;;;;;;;12.26;100.00;98169.06;6239262;23;20374;-67
2022/05/27 04:05:03;;;;;;;2.22;1.92;;;;;;;12.20;100.00;98151.63;6217520;23;20043;-62
2022/05/27 04:07:48;;;;;;;3.30;2.17;;;;;;;12.40;100.00;98183.31;6238190;23;20027;-62
2022/05/27 04:10:32;;;;;;;3.38;2.00;;;;;;;12.46;100.00;98179.50;6240431;23;20354;-62
2022/05/27 04:13:17;;;;;;;3.33;2.50;;;;;;;12.36;100.00;98160.50;6240416;23;20536;-62
2022/05/27 04:16:01;;;;;;;4.05;2.80;;;;;;;12.46;100.00;98166.19;6240556;23;20154;-62
2022/05/27 04:18:46;;;;;;;2.67;2.30;;;;;;;12.39;100.00;98167.47;6250439;23;20062;-63
2022/05/27 04:21:31;;;;;;;3.10;2.10;;;;;;;12.38;100.00;98171.06;6249812;23;20081;-70
2022/05/27 04:24:15;;;;;;;4.35;2.35;;;;;;;12.39;100.00;98165.63;6225165;23;20412;-63
2022/05/27 04:27:10;;;;;;;2.40;2.20;;;;;;;12.45;100.00;98173.31;6235559;23;20513;-63
2022/05/27 04:29:55;;;;;;;2.30;1.98;;;;;;;12.37;100.00;98174.63;6238164;23;20146;-62
2022/05/27 04:32:41;;;;;;;3.65;2.28;;;;;;;12.45;100.00;98169.78;6248037;23;20043;-65
2022/05/27 04:35:25;;;;;;;4.05;1.83;;;;;;;12.50;100.00;98179.22;6214338;23;20545;-63
2022/05/27 04:38:09;;;;;;;3.88;2.08;;;;;;;12.59;100.00;98173.41;6248294;23;20062;-62
2022/05/27 04:40:54;;;;;;;2.83;2.35;;;;;;;12.60;100.00;98179.59;6215284;23;20031;-62
2022/05/27 04:43:38;;;;;;;2.42;1.70;;;;;;;12.60;100.00;98179.59;6240279;23;20027;-62
2022/05/27 04:46:23;;;;;;;3.50;1.90;;;;;;;12.60;100.00;98180.47;6226419;23;20027;-62
2022/05/27 04:49:07;;;;;;;2.25;2.00;;;;;;;12.64;100.00;98186.47;6248511;23;20030;-62
2022/05/27 04:51:52;;;;;;;2.97;2.20;;;;;;;12.67;100.00;98181.84;6240391;23;20369;-64
2022/05/27 04:54:37;;;;;;;4.32;2.35;;;;;;;12.76;100.00;98191.13;6227121;23;20122;-63
2022/05/27 04:57:27;;;;;;;3.58;2.15;;;;;;;12.85;100.00;98187.97;6217095;23;20031;-63
2022/05/27 05:00:17;;;;;;;4.22;2.25;;;;;;;12.82;100.00;98194.31;6247765;23;20027;-62
2022/05/27 05:03:01;;;;;;;3.00;1.83;;;;;;;12.68;100.00;98164.97;6239821;23;20051;-61
2022/05/27 05:05:46;;;;;;;2.60;2.10;;;;;;;12.66;100.00;98163.34;6195720;23;20409;-63
2022/05/27 05:08:38;;;;;;;3.13;1.65;;;;;;;12.80;100.00;98193.56;6239645;23;20031;-62
2022/05/27 05:11:22;;;;;;;1.90;1.70;;;;;;;12.75;100.00;98197.41;6249657;23;20027;-62
2022/05/27 05:14:07;;;;;;;1.98;1.60;;;;;;;12.70;100.00;98196.81;6247470;23;20047;-61
2022/05/27 05:16:52;;;;;;;4.95;2.08;;;;;;;12.78;100.00;98198.09;6249898;23;20031;-63
2022/05/27 05:19:36;;;;;;;3.22;2.05;;;;;;;12.50;100.00;98178.38;6249760;23;20031;-62
2022/05/27 05:22:22;;;;;;;3.65;2.22;;;;;;;12.61;100.00;98170.69;6249573;23;20070;-61
2022/05/27 05:25:09;;;;;;;5.50;2.10;;;;;;;12.82;100.00;98206.78;6249673;23;20035;-63
2022/05/27 05:27:53;;;;;;;3.13;2.20;;;;;;;12.77;100.00;98199.03;6247116;23;20035;-64
2022/05/27 05:30:38;;;;;;;2.95;1.73;;;;;;;12.87;100.00;98204.72;6249998;23;20058;-63
2022/05/27 05:33:22;;;;;;;2.95;1.90;;;;;;;12.85;100.00;98206.59;6247632;23;20426;-62
2022/05/27 05:36:07;;;;;;;3.95;1.83;;;;;;;12.93;100.00;98204.38;6250497;23;20524;-62
2022/05/27 05:38:51;;;;;;;4.78;2.33;;;;;;;13.18;100.00;98210.97;6250401;23;20031;-63
2022/05/27 05:41:39;;;;;;;3.42;2.15;;;;;;;13.26;100.00;98207.91;6249126;23;20027;-63
2022/05/27 05:44:24;;;;;;;3.10;1.70;;;;;;;13.16;100.00;98207.56;6216715;23;20058;-62
2022/05/27 05:47:09;;;;;;;3.28;1.80;;;;;;;13.00;100.00;98205.81;6192782;23;20031;-63
2022/05/27 05:49:54;;;;;;;2.83;1.73;;;;;;;13.09;100.00;98218.59;6236760;23;20138;-62
2022/05/27 05:52:38;;;;;;;2.17;1.58;;;;;;;13.03;100.00;98205.66;6234770;23;20030;-65
2022/05/27 05:55:22;;;;;;;2.58;1.73;;;;;;;13.02;100.00;98210.09;6247913;23;20485;-62
2022/05/27 05:58:07;;;;;;;3.33;1.42;;;;;;;12.93;100.00;98197.25;6249755;23;20066;-62
2022/05/27 06:00:51;;;;;;;1.73;1.40;;;;;;;13.14;100.00;98219.22;6250502;23;20059;-62
2022/05/27 06:03:35;;;;;;;1.70;1.40;;;;;;;13.15;100.00;98216.50;6240818;23;20043;-62
2022/05/27 06:06:20;;;;;;;4.05;2.00;;;;;;;13.16;100.00;98223.53;6217392;23;20051;-71
2022/05/27 06:09:07;;;;;;;2.40;1.75;;;;;;;13.11;100.00;98224.72;6252139;23;20516;-62
2022/05/27 06:11:55;;;;;;;2.85;2.20;;;;;;;13.31;100.00;98222.69;6195451;23;20042;-62
2022/05/27 06:14:39;;;;;;;3.88;1.90;;;;;;;13.22;100.00;98215.19;6228732;23;20027;-62
2022/05/27 06:17:25;;;;;;;3.70;2.10;;;;;;;13.28;100.00;98225.50;6218738;23;20039;-64
2022/05/27 06:20:10;;;;;;;3.38;1.90;;;;;;;13.12;100.00;98198.03;6197364;23;20035;-68
2022/05/27 06:22:54;;;;;;;2.33;1.95;;;;;;;13.10;100.00;98209.69;6251354;23;20457;-63
2022/05/27 06:25:39;;;;;;;2.63;2.00;;;;;;;13.07;100.00;98224.03;6225304;23;20315;-64
2022/05/27 06:34:30;;;;;;;3.05;2.20;;;;;;;13.22;100.00;98225.81;6241050;23;20043;-62
2022/05/27 06:37:19;;;;;;;3.85;2.08;;;;;;;13.32;100.00;98219.06;6218196;23;20035;-70
2022/05/27 06:40:06;;;;;;;4.10;2.50;;;;;;;13.43;100.00;98223.78;6241362;23;20030;-62
2022/05/27 06:42:50;;;;;;;3.75;2.50;;;;;;;13.27;100.00;98205.16;6249422;23;20489;-62
2022/05/27 06:45:35;;;;;;;4.60;2.53;;;;;;;13.63;100.00;98231.50;6241365;23;20067;-61
2022/05/27 06:48:19;;;;;;;3.53;2.55;;;;;;;13.89;100.00;98220.25;6240540;23;20070;-63
2022/05/27 06:51:06;;;;;;;4.75;2.50;;;;;;;14.12;100.00;98243.72;6240971;23;20142;-62
2022/05/27 06:53:51;;;;;;;4.50;2.40;;;;;;;14.33;100.00;98237.19;6218259;23;20027;-63
2022/05/27 06:56:41;;;;;;;4.70;2.88;;;;;;;14.52;100.00;98237.78;6250363;23;20058;-73
2022/05/27 06:59:26;;;;;;;4.18;3.08;;;;;;;14.45;100.00;98236.47;6240754;23;20085;-63
2022/05/27 07:02:11;;;;;;;3.38;2.63;;;;;;;14.56;100.00;98251.81;6239594;23;20788;-62
2022/05/27 07:04:55;;;;;;;4.43;3.20;;;;;;;14.45;100.00;98236.47;6241227;23;20047;-62
2022/05/27 07:07:40;;;;;;;5.30;2.78;;;;;;;14.62;100.00;98240.75;6240822;23;20419;-62
2022/05/27 07:10:25;;;;;;;3.95;3.20;;;;;;;14.87;100.00;98236.50;6240738;23;20027;-72
2022/05/27 07:13:10;;;;;;;4.25;3.00;;;;;;;14.60;100.00;98235.50;6217724;23;20027;-63
2022/05/27 07:15:54;;;;;;;;;;;;;;;14.45;100.00;98249.78;6239301;23;20070;-63
2022/05/27 07:18:39;;;;;;;4.50;2.22;;;;;;;14.30;100.00;98231.16;6250633;23;20344;-64
2022/05/27 07:21:23;;;;;;;2.80;2.50;;;;;;;14.17;100.00;98246.13;6248603;23;20070;-63
2022/05/27 07:24:09;;;;;;;5.30;2.90;;;;;;;13.97;100.00;98255.31;6217544;23;20055;-62
2022/05/27 07:26:54;;;;;;;3.53;2.10;;;;;;;13.86;100.00;98241.72;6196270;23;20031;-62
2022/05/27 07:29:38;;;;;;;3.55;2.45;;;;;;;13.98;100.00;98249.00;6251330;23;20031;-63
2022/05/27 07:32:22;;;;;;;4.95;3.10;;;;;;;14.06;100.00;98256.56;6228547;23;20031;-62
2022/05/27 07:35:08;;;;;;;6.82;4.40;;;;;;;13.95;100.00;98259.84;6237962;23;20147;-63
2022/05/27 07:37:53;;;;;;;4.20;3.00;;;;;;;13.93;100.00;98250.22;6217659;23;20101;-63
2022/05/27 07:40:39;;;;;;;4.28;3.08;;;;;;;14.04;100.00;98256.63;6237730;23;20031;-63
2022/05/27 07:43:24;;;;;;;4.20;3.30;;;;;;;13.98;100.00;98260.50;6250037;23;20066;-62
2022/05/27 07:46:11;;;;;;;6.50;4.35;;;;;;;14.17;100.00;98265.66;6205786;23;20473;-60
2022/05/27 07:48:56;;;;;;;18.27;12.18;;;;;;;14.27;100.00;98264.19;6249128;23;20023;-70
2022/05/27 07:51:41;;;;;;;20.45;13.35;;;;;;;14.61;100.00;98266.59;6216990;23;20031;-62
2022/05/27 07:54:25;;;;;;;21.60;14.18;;;;;;;15.34;100.00;98266.44;6247961;23;20084;-62
2022/05/27 07:57:25;;;;;;;24.77;15.32;;;;;;;15.42;100.00;98276.72;6217062;23;20035;-63
2022/05/27 08:00:31;;;;;;;19.23;14.23;;;;;;;15.83;100.00;98274.91;6226943;23;20050;-62
2022/05/27 08:03:18;;;;;;;17.88;13.52;;;;;;;15.74;100.00;98271.00;6239712;23;20078;-61
2022/05/27 08:06:03;;;;;;;18.90;13.20;;;;;;;15.57;100.00;98270.38;6194424;23;20023;-64
2022/05/27 08:08:48;;;;;;;;;;;;;;;15.52;100.00;98277.81;6227366;23;20078;-62
2022/05/27 08:11:32;;;;;;;8.80;4.40;;;;;;;15.35;100.00;98280.72;6214166;23;19954;-61
2022/05/27 08:14:17;;;;;;;4.28;2.50;;;;;;;15.20;100.00;98261.13;6249573;23;20022;-62
2022/05/27 08:17:03;;;;;;;4.85;2.53;;;;;;;15.55;100.00;98288.31;6238099;23;20111;-61
2022/05/27 08:19:47;;;;;;;3.95;2.10;;;;;;;15.73;100.00;98282.66;6216934;23;20026;-62
2022/05/27 08:22:32;;;;;;;2.25;1.58;;;;;;;15.90;100.00;98286.94;6249374;23;20074;-61
2022/05/27 08:25:16;;;;;;;2.50;1.60;;;;;;;15.96;100.00;98287.38;6239077;23;20027;-64
2022/05/27 08:28:01;;;;;;;;;;;;;;;16.02;100.00;98286.13;6240081;23;20058;-62
2022/05/27 08:30:45;;;;;;;4.15;1.70;;;;;;;16.17;100.00;98295.78;6237021;23;20024;-60
2022/05/27 08:39:38;;;;;;;3.78;1.40;;;;;;;16.28;100.00;98290.59;6239645;23;20022;-61
2022/05/27 08:42:53;;;;;;;4.35;1.70;;;;;;;16.56;100.00;98288.72;6248956;23;20361;-64
2022/05/27 08:45:59;;;;;;;3.33;1.90;;;;;;;16.99;100.00;98295.53;6224938;23;20031;-66
2022/05/27 08:48:47;;;;;;;5.85;1.60;;;;;;;16.73;100.00;98283.06;6249797;23;20082;-67
2022/05/27 08:51:53;;;;;;;3.85;1.80;;;;;;;16.48;100.00;98292.84;6249991;23;20073;-65
2022/05/27 08:54:56;;;;;;;5.22;2.13;;;;;;;16.28;100.00;98288.81;6216778;23;20031;-62
2022/05/27 09:00:44;;;;;;;3.13;2.03;;;;;;;15.60;100.00;98275.53;6236503;23;20027;-64
2022/05/27 09:03:34;;;;;;;3.88;1.73;;;;;;;15.68;100.00;98300.81;6239144;23;20034;-64
2022/05/27 09:06:34;;;;;;;6.20;2.00;;;;;;;15.68;100.00;98295.47;6249729;23;20030;-62
2022/05/27 09:09:23;;;;;;;8.38;2.33;;;;;;;15.85;100.00;98305.06;6237181;23;20049;-62
2022/05/27 09:12:42;;;;;;;4.03;1.80;;;;;;;15.82;100.00;98306.13;6195638;23;20058;-65
2022/05/27 09:15:42;;;;;;;4.25;1.92;;;;;;;15.72;100.00;98314.81;6249848;23;20070;-63
2022/05/27 09:18:57;;;;;;;2.33;1.70;;;;;;;15.60;100.00;98312.94;6249945;23;20081;-63
2022/05/27 09:21:58;;;;;;;3.13;1.60;;;;;;;15.99;100.00;98323.75;6249903;23;20078;-62
2022/05/27 09:24:58;;;;;;;3.63;2.10;;;;;;;16.10;100.00;98330.09;6226809;23;20042;-63
2022/05/27 09:27:45;;;;;;;5.50;2.10;;;;;;;16.73;100.00;98325.03;6216806;23;20485;-62
2022/05/27 09:30:34;;;;;;;4.45;2.17;;;;;;;17.13;100.00;98324.88;6225740;23;20098;-66
2022/05/27 09:33:21;;;;;;;3.35;2.20;;;;;;;17.51;100.00;98316.88;6239810;23;20085;-62
2022/05/27 09:36:34;;;;;;;2.45;1.65;;;;;;;17.70;100.00;98294.03;6249941;23;20066;-62
2022/05/27 09:39:21;;;;;;;2.28;1.42;;;;;;;17.87;100.00;98323.16;6197143;23;20078;-64
2022/05/27 09:42:12;;;;;;;2.53;1.40;;;;;;;17.54;100.00;98312.16;6219903;23;20027;-62
2022/05/27 09:44:59;;;;;;;1.80;1.40;;;;;;;17.11;100.00;98309.88;6252844;23;20078;-63
2022/05/27 09:47:44;;;;;;;1.67;1.42;;;;;;;16.77;100.00;98322.03;6217188;23;20031;-62
2022/05/27 09:50:38;;;;;;;2.65;1.45;;;;;;;16.58;100.00;98326.91;6253028;23;20082;-62
2022/05/27 09:53:31;;;;;;;2.03;1.60;;;;;;;16.30;100.00;98332.34;6242940;23;20122;-63
2022/05/27 09:56:35;;;;;;;4.22;1.90;;;;;;;16.18;100.00;98330.47;6217960;23;20122;-64
2022/05/27 09:59:25;;;;;;;4.80;1.80;;;;;;;16.16;100.00;98347.56;6220130;23;20100;-62
2022/05/27 10:02:20;;;;;;;2.50;1.63;;;;;;;16.10;100.00;98342.66;6227671;23;20027;-64
2022/05/27 10:05:08;;;;;;;2.58;2.00;;;;;;;16.10;100.00;98342.66;6252850;23;20105;-63
2022/05/27 10:07:57;;;;;;;3.42;1.83;;;;;;;15.97;100.00;98334.53;6219714;23;20030;-62
2022/05/27 10:10:42;;;;;;;3.28;2.03;;;;;;;16.34;100.00;98341.88;6253152;23;20027;-63
2022/05/27 10:13:30;;;;;;;4.38;2.03;;;;;;;16.50;100.00;98350.63;6206312;23;20046;-62
2022/05/27 10:16:26;;;;;;;5.40;1.80;;;;;;;16.37;100.00;98330.97;6242403;23;20046;-61
2022/05/27 10:19:13;;;;;;;2.95;1.90;;;;;;;16.41;100.00;98332.53;6252569;23;20031;-63
2022/05/27 10:22:06;;;;;;;4.80;1.95;;;;;;;16.85;100.00;98351.00;6227308;23;20031;-63
2022/05/27 10:25:12;;;;;;;4.40;2.00;;;;;;;17.16;100.00;98343.41;6219549;23;20158;-64
2022/05/27 10:27:56;;;;;;;4.15;2.00;;;;;;;17.34;100.00;98352.00;6229735;23;20492;-62
2022/05/27 10:30:54;;;;;;;3.22;1.80;;;;;;;18.44;100.00;98352.09;6251427;23;20031;-61
2022/05/27 10:33:49;;;;;;;3.72;2.20;;;;;;;18.58;100.00;98350.09;6196224;23;20031;-62
2022/05/27 10:36:59;;;;;;;2.38;1.95;;;;;;;19.55;100.00;98351.53;6219777;23;20031;-59
2022/05/27 10:40:01;;;;;;;2.17;1.60;;;;;;;20.44;100.00;98348.69;6219646;23;20361;-60
2022/05/27 10:43:02;;;;;;;2.72;1.85;;;;;;;19.41;100.00;98352.59;6252759;23;20043;-62
2022/05/27 10:45:53;;;;;;;3.08;1.70;;;;;;;18.41;100.00;98344.25;6229999;23;20043;-60
2022/05/27 10:49:18;;;;;;;5.18;1.88;;;;;;;18.03;100.00;98363.97;6239201;23;20030;-74
2022/05/27 10:52:29;;;;;;;3.43;1.33;;;;;;;16.54;100.00;98367.38;6127584;23;20499;-63
2022/05/27 10:55:31;;;;;;;4.78;1.40;;;;;;;16.00;100.00;98401.19;6116984;23;20032;-63
2022/05/27 11:02:04;;;;;;;2.70;1.27;;;;;;;15.08;100.00;98422.06;6115873;23;20152;-61
2022/05/27 11:05:03;;;;;;;2.20;1.20;;;;;;;14.77;100.00;98407.94;6116096;23;20109;-63
2022/05/27 11:08:18;;;;;;;3.75;1.60;;;;;;;15.15;100.00;98403.88;6117356;23;20025;-71
2022/05/27 11:11:33;;;;;;;3.00;1.50;;;;;;;16.04;100.00;98426.78;6126952;23;20028;-66
2022/05/27 11:17:28;;;;;;;2.67;1.25;;;;;;;16.89;100.00;98416.75;6124901;23;20037;-63
2022/05/27 11:20:24;;;;;;;3.70;1.48;;;;;;;16.82;100.00;98421.63;6126606;23;20032;-65
2022/05/27 11:23:28;;;;;;;3.58;1.75;;;;;;;16.86;100.00;98424.97;6105755;23;20052;-64
2022/05/27 11:26:33;;;;;;;1.90;1.30;;;;;;;16.85;100.00;98418.75;6123688;23;20380;-62
2022/05/27 11:29:54;;;;;;;5.95;1.40;;;;;;;16.66;100.00;98409.38;6221786;23;20092;-64
2022/05/27 11:32:58;;;;;;;2.60;1.42;;;;;;;16.29;100.00;98423.38;6236858;23;20565;-64
2022/05/27 11:36:10;;;;;;;4.40;1.30;;;;;;;16.04;100.00;98417.88;6223740;23;20035;-64
2022/05/27 11:39:12;;;;;;;3.90;0.80;;;;;;;15.44;100.00;98389.63;6246255;23;20059;-64
2022/05/27 11:42:15;;;;;;;0.60;0.55;;;;;;;15.35;100.00;98416.91;6226463;23;20516;-63
2022/05/27 11:45:15;;;;;;;0.88;0.70;;;;;;;15.08;100.00;98423.88;6249129;23;20362;-62
2022/05/27 11:48:42;;;;;;;1.05;0.70;;;;;;;14.88;100.00;98405.50;6225802;23;20463;-61
2022/05/27 11:51:46;;;;;;;1.30;0.50;;;;;;;14.75;100.00;98424.03;6185547;23;20080;-61
2022/05/27 11:54:53;;;;;;;2.70;0.93;;;;;;;14.88;100.00;98421.53;6175738;23;20024;-62
2022/05/27 11:58:15;;;;;;;1.00;0.50;;;;;;;14.93;100.00;98424.78;6154140;23;20052;-64
2022/05/27 12:01:25;;;;;;;0.95;0.45;;;;;;;14.91;100.00;98430.19;6185449;23;20047;-62
2022/05/27 12:04:13;;;;;;;1.27;0.60;;;;;;;15.08;100.00;98424.75;6094952;23;20025;-64
2022/05/27 12:07:26;;;;;;;1.90;0.85;;;;;;;15.28;100.00;98436.91;6115824;23;20044;-62
2022/05/27 12:10:20;;;;;;;2.85;1.10;;;;;;;15.53;100.00;98426.47;6095272;23;20032;-64
2022/05/27 12:13:37;;;;;;;4.88;1.10;;;;;;;15.90;100.00;98433.94;6123797;23;20032;-67
2022/05/27 12:16:27;;;;;;;3.53;1.15;;;;;;;15.92;100.00;98419.53;6102212;23;20516;-64
2022/05/27 12:19:18;;;;;;;1.48;0.80;;;;;;;16.28;100.00;98398.47;6115959;23;20092;-64
2022/05/27 12:22:25;;;;;;;1.13;0.80;;;;;;;16.79;100.00;98421.84;6116081;23;20433;-62
2022/05/27 12:25:17;;;;;;;3.85;1.30;;;;;;;16.80;100.00;98428.91;6125340;23;20028;-62
2022/05/27 12:28:03;;;;;;;1.80;1.00;;;;;;;16.63;100.00;98431.84;6137568;23;20480;-65
2022/05/27 12:30:49;;;;;;;3.65;1.20;;;;;;;16.33;100.00;98428.44;6175521;23;20027;-63
2022/05/27 12:33:37;;;;;;;0.93;0.77;;;;;;;16.18;100.00;98420.56;6182907;23;20092;-63
2022/05/27 12:36:28;;;;;;;1.85;0.82;;;;;;;16.04;100.00;98410.75;6184885;23;20052;-61
2022/05/27 12:39:23;;;;;;;1.52;0.80;;;;;;;15.72;100.00;98425.25;6175010;23;20549;-63
2022/05/27 12:42:27;;;;;;;0.63;0.60;;;;;;;15.59;100.00;98418.09;6243148;23;20035;-68
2022/05/27 12:45:35;;;;;;;1.98;0.60;;;;;;;15.69;100.00;98424.56;6244687;23;20030;-65
2022/05/27 12:48:34;;;;;;;1.30;0.70;;;;;;;15.98;100.00;98424.47;6223412;23;20031;-67
2022/05/27 12:51:19;;;;;;;2.10;0.90;;;;;;;16.00;100.00;98419.03;6225118;23;20127;-63
2022/05/27 12:54:03;;;;;;;3.38;0.80;;;;;;;16.09;100.00;98408.63;6239173;23;20410;-66
2022/05/27 13:02:55;;;;;;;4.82;2.30;;;;;;;15.45;100.00;98434.09;6248113;23;20556;-61
2022/05/27 13:06:07;;;;;;;2.53;1.67;;;;;;;15.32;100.00;98433.09;6235750;23;20102;-63
2022/05/27 13:08:52;;;;;;;5.97;2.88;;;;;;;14.96;100.00;98409.47;6172044;23;20026;-64
2022/05/27 13:11:37;;;;;;;4.57;1.92;;;;;;;14.83;100.00;98416.44;6248589;23;20027;-69
2022/05/27 13:14:38;;;;;;;2.45;1.48;;;;;;;14.94;100.00;98439.81;6225220;23;20027;-64
2022/05/27 13:17:42;;;;;;;3.58;1.17;;;;;;;14.83;100.00;98443.13;6223268;23;20107;-63
2022/05/27 13:20:40;;;;;;;3.30;1.40;;;;;;;14.71;100.00;98427.81;6212600;23;20026;-69
2022/05/27 13:23:28;;;;;;;2.10;1.05;;;;;;;14.70;100.00;98446.59;6191848;23;20070;-61
2022/05/27 13:26:20;;;;;;;2.30;1.00;;;;;;;14.76;100.00;98447.13;6238801;23;20107;-59
2022/05/27 13:29:23;;;;;;;2.40;1.20;;;;;;;14.89;100.00;98441.91;6246436;23;20166;-60
2022/05/27 13:32:11;;;;;;;2.17;0.88;;;;;;;14.79;100.00;98409.56;6194571;23;20027;-69
2022/05/27 13:35:04;;;;;;;5.20;1.25;;;;;;;14.85;100.00;98416.34;6227328;23;20474;-60
2022/05/27 13:37:59;;;;;;;3.08;1.27;;;;;;;15.09;100.00;98446.94;6238484;23;20179;-59
2022/05/27 13:40:45;;;;;;;2.33;1.17;;;;;;;15.17;100.00;98431.31;6247938;23;20046;-64
2022/05/27 13:43:36;;;;;;;2.00;0.90;;;;;;;15.59;100.00;98451.00;6216699;23;20062;-61
2022/05/27 13:46:36;;;;;;;5.65;1.40;;;;;;;16.08;100.00;98464.88;6214368;23;20046;-62
2022/05/27 13:49:48;;;;;;;2.92;1.23;;;;;;;16.64;100.00;98446.94;6246070;23;20405;-65
2022/05/27 13:52:35;;;;;;;2.05;1.30;;;;;;;16.89;100.00;98439.00;6214206;23;20031;-63